Portada
METAR-TAF:

METAR-TAF

Aeropuertos :

Madison, Wisconsin, Estados Unidos

latitud: 43-08-26N, longitud: 089-20-43W, altitud: 262 m

Observación

El informe se hizo hace 32 minutos, a las 04:53 UTC
Viento 10 kt del este
Temperatura 15°C
Humedad 72%
Presión 1019 hPa
Visibilidad: 16.1 km
Cielo despejado

METAR: KMSN 070453Z AUTO 09010KT 10SM CLR 15/10 A3010 RMK AO2 SLP190 T01500100

Hora: 00:25 (05:25 UTC)

Pronóstico

El informe se hizo hace 2 horas y 20 minutos, a las 03:05 UTC
Pronóstico válido del 07 a las 03 UTC al 07 a las 24 UTC
Viento 9 kt del este
Visibilidad: 10 km
Nubes dispersas a una altura de 7000 ft
Cielo nuboso a una altura de 25000 ft
A partir de las 07 a las 1400 UTC
Viento 8 kt del este-sureste
Visibilidad: 10 km
Nubes dispersas a una altura de 15000 ft

TAF: KMSN 070305Z 0703/0724 08009KT P6SM SCT070 BKN250 FM071400 11008KT P6SM SCT150

Observaciones y pronósticos meteorológicos de más de 4000 aeropuertos (mensajes METAR y TAF).

Los puntos amarillos y rojos representan las estaciones disponibles.

Ponga el ratón en el punto deseado para ver el nombre de la estación.

Haga clic para ver las observaciones y los pronósticos meteorológicos.

Para cambiar el mapa : haga clic en los botones verdes con una cruz de color negro para hacer un zoom, en el botón verde con un guión para alejar o en las flechas verdes para mapas adyacentes.


METAR-TAF: